Time,TemperatureF,DewpointF,PressureIn,WindDirection,WindDirectionDegrees,WindSpeedMPH,WindSpeedGustMPH,Humidity,HourlyPrecipIn,Conditions,Clouds,dailyrainin,SoftwareType,DateUTC
2013-05-29 00:02:00,62.0,61.0,-100.00,South,185,7.0,9.0,95,0.00,,,-99.99,,2013-05-29 05:02:00,
2013-05-29 00:12:00,63.0,62.0,-100.00,South,185,6.0,12.0,95,0.00,,,-99.99,,2013-05-29 05:12:00,
2013-05-29 00:22:00,64.0,63.0,-100.00,South,190,8.0,13.0,95,0.00,,,-99.99,,2013-05-29 05:22:00,
2013-05-29 00:32:00,64.0,62.0,-100.00,South,180,3.0,9.0,95,0.00,,,-99.99,,2013-05-29 05:32:00,
2013-05-29 00:42:00,64.0,63.0,-100.00,SSE,165,4.0,9.0,95,0.00,,,-99.99,,2013-05-29 05:42:00,
2013-05-29 00:52:00,64.0,62.0,-100.00,South,175,6.0,11.0,95,0.00,,,-99.99,,2013-05-29 05:52:00,
2013-05-29 01:01:00,65.0,63.0,-100.00,SSW,200,4.0,11.0,95,0.00,,,-99.99,,2013-05-29 06:01:00,
2013-05-29 01:11:00,65.0,64.0,-100.00,SSW,210,1.0,7.0,95,0.00,,,-99.99,,2013-05-29 06:11:00,
2013-05-29 01:21:00,65.0,64.0,-100.00,SW,220,7.0,10.0,95,0.14,,,-99.99,,2013-05-29 06:21:00,
2013-05-29 01:31:00,65.0,64.0,-100.00,SW,225,6.0,10.0,95,0.17,,,-99.99,,2013-05-29 06:31:00,
2013-05-29 01:42:00,65.0,63.0,-100.00,SW,220,16.0,21.0,95,0.28,,,-99.99,,2013-05-29 06:42:00,
2013-05-29 01:51:00,64.0,63.0,-100.00,SW,215,10.0,22.0,95,0.51,,,-99.99,,2013-05-29 06:51:00,
2013-05-29 02:01:00,64.0,63.0,-100.00,SW,220,10.0,17.0,95,0.78,,,-99.99,,2013-05-29 07:01:00,
2013-05-29 02:11:00,65.0,63.0,-100.00,SSW,205,9.0,19.0,95,0.30,,,-99.99,,2013-05-29 07:11:00,
2013-05-29 02:21:00,64.0,63.0,-100.00,South,180,7.0,12.0,95,0.28,,,-99.99,,2013-05-29 07:21:00,
2013-05-29 02:34:00,64.0,63.0,-100.00,SSE,160,7.0,11.0,95,0.10,,,-99.99,,2013-05-29 07:34:00,
2013-05-29 02:42:00,64.0,63.0,-100.00,SSW,195,14.0,21.0,95,0.14,,,-99.99,,2013-05-29 07:42:00,
2013-05-29 02:52:00,64.0,63.0,-100.00,SSW,205,6.0,21.0,95,0.18,,,-99.99,,2013-05-29 07:52:00,
2013-05-29 03:02:00,64.0,63.0,-100.00,SSW,200,8.0,11.0,95,0.14,,,-99.99,,2013-05-29 08:02:00,
2013-05-29 03:11:00,64.0,63.0,-100.00,WNW,290,3.0,11.0,95,0.16,,,-99.99,,2013-05-29 08:11:00,
2013-05-29 03:21:00,64.0,62.0,-100.00,South,180,6.0,10.0,95,0.00,,,-99.99,,2013-05-29 08:21:00,
2013-05-29 03:32:00,63.0,62.0,-100.00,South,180,11.0,14.0,95,0.00,,,-99.99,,2013-05-29 08:32:00,
2013-05-29 03:42:00,63.0,62.0,-100.00,South,185,8.0,19.0,95,0.00,,,-99.99,,2013-05-29 08:42:00,
2013-05-29 03:51:00,62.0,61.0,-100.00,South,180,7.0,17.0,95,0.00,,,-99.99,,2013-05-29 08:51:00,
2013-05-29 04:01:00,62.0,61.0,-100.00,South,180,7.0,17.0,95,0.00,,,-99.99,,2013-05-29 09:01:00,
2013-05-29 04:11:00,63.0,62.0,-100.00,SW,235,7.0,12.0,95,0.00,,,-99.99,,2013-05-29 09:11:00,
2013-05-29 04:21:00,63.0,62.0,-100.00,WSW,250,7.0,13.0,95,0.00,,,-99.99,,2013-05-29 09:21:00,
2013-05-29 04:33:00,63.0,62.0,-100.00,SW,230,6.0,14.0,95,0.00,,,-99.99,,2013-05-29 09:33:00,
2013-05-29 04:42:00,63.0,62.0,-100.00,SW,215,6.0,12.0,95,0.00,,,-99.99,,2013-05-29 09:42:00,
2013-05-29 04:52:00,63.0,62.0,-100.00,SW,235,7.0,12.0,95,0.00,,,-99.99,,2013-05-29 09:52:00,
2013-05-29 05:03:00,63.0,62.0,-100.00,SW,225,6.0,13.0,95,0.00,,,-99.99,,2013-05-29 10:03:00,
2013-05-29 05:12:00,63.0,62.0,-100.00,SSW,200,3.0,9.0,95,0.00,,,-99.99,,2013-05-29 10:12:00,
2013-05-29 05:22:00,62.0,61.0,-100.00,SSE,155,4.0,7.0,95,0.00,,,-99.99,,2013-05-29 10:22:00,
2013-05-29 05:32:00,62.0,61.0,-100.00,SSE,160,4.0,7.0,95,0.00,,,-99.99,,2013-05-29 10:32:00,
2013-05-29 05:42:00,62.0,61.0,-100.00,South,180,6.0,8.0,95,0.00,,,-99.99,,2013-05-29 10:42:00,
2013-05-29 05:52:00,62.0,60.0,-100.00,South,180,5.0,7.0,95,0.00,,,-99.99,,2013-05-29 10:52:00,
2013-05-29 06:02:00,62.0,61.0,-100.00,South,180,7.0,9.0,95,0.00,,,-99.99,,2013-05-29 11:02:00,
2013-05-29 06:12:00,62.0,61.0,-100.00,South,180,5.0,11.0,95,0.00,,,-99.99,,2013-05-29 11:12:00,
2013-05-29 06:22:00,62.0,60.0,-100.00,SE,145,3.0,7.0,95,0.00,,,-99.99,,2013-05-29 11:22:00,
2013-05-29 06:32:00,62.0,61.0,-100.00,SE,140,2.0,4.0,95,0.00,,,-99.99,,2013-05-29 11:32:00,
2013-05-29 06:42:00,62.0,61.0,-100.00,SE,140,2.0,4.0,95,0.00,,,-99.99,,2013-05-29 11:42:00,
2013-05-29 06:51:00,62.0,61.0,-100.00,SSE,160,4.0,5.0,95,0.00,,,-99.99,,2013-05-29 11:51:00,
2013-05-29 07:01:00,62.0,61.0,-100.00,SSE,160,4.0,5.0,95,0.00,,,-99.99,,2013-05-29 12:01:00,
2013-05-29 07:11:00,62.0,61.0,-100.00,SSE,150,2.0,4.0,95,0.00,,,-99.99,,2013-05-29 12:11:00,
2013-05-29 07:21:00,63.0,61.0,-100.00,SSE,160,4.0,6.0,95,0.00,,,-99.99,,2013-05-29 12:21:00,
2013-05-29 07:32:00,63.0,62.0,-100.00,SSE,150,1.0,4.0,95,0.00,,,-99.99,,2013-05-29 12:32:00,
2013-05-29 07:42:00,63.0,62.0,-100.00,SE,135,2.0,4.0,95,0.00,,,-99.99,,2013-05-29 12:42:00,
2013-05-29 07:51:00,65.0,63.0,-100.00,South,170,4.0,7.0,95,0.00,,,-99.99,,2013-05-29 12:51:00,
2013-05-29 08:02:00,65.0,63.0,-100.00,South,170,4.0,7.0,95,0.00,,,-99.99,,2013-05-29 13:02:00,
2013-05-29 08:11:00,65.0,64.0,-100.00,South,170,4.0,8.0,95,0.00,,,-99.99,,2013-05-29 13:11:00,
2013-05-29 08:21:00,66.0,65.0,-100.00,SSE,165,6.0,9.0,95,0.00,,,-99.99,,2013-05-29 13:21:00,
2013-05-29 08:32:00,67.0,66.0,-100.00,South,190,6.0,10.0,95,0.00,,,-99.99,,2013-05-29 13:32:00,
2013-05-29 08:42:00,67.0,66.0,-100.00,South,190,6.0,10.0,95,0.00,,,-99.99,,2013-05-29 13:42:00,
2013-05-29 08:52:00,68.0,67.0,-100.00,South,175,4.0,9.0,95,0.00,,,-99.99,,2013-05-29 13:52:00,
2013-05-29 09:02:00,69.0,68.0,-100.00,South,180,6.0,10.0,95,0.00,,,-99.99,,2013-05-29 14:02:00,
2013-05-29 09:11:00,71.0,69.0,-100.00,South,180,7.0,13.0,95,0.00,,,-99.99,,2013-05-29 14:11:00,
2013-05-29 09:21:00,70.0,68.0,-100.00,South,185,12.0,19.0,95,0.00,,,-99.99,,2013-05-29 14:21:00,
2013-05-29 09:32:00,71.0,70.0,-100.00,SSW,195,8.0,19.0,95,0.00,,,-99.99,,2013-05-29 14:32:00,
2013-05-29 09:42:00,72.0,71.0,-100.00,South,185,12.0,17.0,95,0.00,,,-99.99,,2013-05-29 14:42:00,
2013-05-29 09:52:00,73.0,71.0,-100.00,South,185,7.0,15.0,95,0.00,,,-99.99,,2013-05-29 14:52:00,
2013-05-29 10:01:00,74.0,72.0,-100.00,South,190,10.0,19.0,95,0.00,,,-99.99,,2013-05-29 15:01:00,
2013-05-29 10:11:00,74.0,73.0,-100.00,South,190,11.0,17.0,95,0.00,,,-99.99,,2013-05-29 15:11:00,
2013-05-29 10:21:00,75.0,74.0,-100.00,SSW,195,9.0,17.0,95,0.00,,,-99.99,,2013-05-29 15:21:00,
2013-05-29 10:33:00,76.0,75.0,-100.00,SSW,200,6.0,14.0,95,0.00,,,-99.99,,2013-05-29 15:33:00,
2013-05-29 10:42:00,77.0,75.0,-100.00,South,190,8.0,17.0,95,0.00,,,-99.99,,2013-05-29 15:42:00,
2013-05-29 10:53:00,77.0,75.0,-100.00,SSW,205,9.0,21.0,95,0.00,,,-99.99,,2013-05-29 15:53:00,
2013-05-29 11:03:00,78.0,76.0,-100.00,SSW,210,9.0,16.0,95,0.00,,,-99.99,,2013-05-29 16:03:00,
2013-05-29 11:12:00,78.0,77.0,-100.00,SW,220,7.0,17.0,95,0.00,,,-99.99,,2013-05-29 16:12:00,
2013-05-29 11:22:00,78.0,77.0,-100.00,SW,215,12.0,20.0,95,0.00,,,-99.99,,2013-05-29 16:22:00,
2013-05-29 11:32:00,78.0,76.0,-100.00,SW,220,11.0,17.0,95,0.00,,,-99.99,,2013-05-29 16:32:00,
2013-05-29 11:42:00,79.0,78.0,-100.00,SW,220,11.0,19.0,94,0.00,,,-99.99,,2013-05-29 16:42:00,
2013-05-29 11:52:00,79.0,78.0,-100.00,SSW,195,9.0,17.0,95,0.00,,,-99.99,,2013-05-29 16:52:00,
2013-05-29 12:02:00,79.0,78.0,-100.00,SSW,195,9.0,17.0,95,0.00,,,-99.99,,2013-05-29 17:02:00,
2013-05-29 12:12:00,79.0,78.0,-100.00,SSW,195,9.0,17.0,95,0.00,,,-99.99,,2013-05-29 17:12:00,
2013-05-29 12:22:00,79.0,78.0,-100.00,SSW,205,11.0,19.0,95,0.00,,,-99.99,,2013-05-29 17:22:00,
2013-05-29 12:32:00,80.0,78.0,-100.00,SSW,205,11.0,19.0,95,0.00,,,-99.99,,2013-05-29 17:32:00,
2013-05-29 12:42:00,80.0,78.0,-100.00,SSW,205,11.0,19.0,95,0.00,,,-99.99,,2013-05-29 17:42:00,
2013-05-29 12:52:00,81.0,79.0,-100.00,SW,215,12.0,21.0,92,0.00,,,-99.99,,2013-05-29 17:52:00,
2013-05-29 13:01:00,81.0,79.0,-100.00,SW,215,12.0,21.0,92,0.00,,,-99.99,,2013-05-29 18:01:00,
2013-05-29 13:13:00,81.0,78.0,-100.00,SSW,195,9.0,20.0,89,0.00,,,-99.99,,2013-05-29 18:13:00,
2013-05-29 13:22:00,81.0,77.0,-100.00,SSW,210,13.0,22.0,85,0.00,,,-99.99,,2013-05-29 18:22:00,
2013-05-29 13:32:00,83.0,80.0,-100.00,South,190,7.0,16.0,90,0.00,,,-99.99,,2013-05-29 18:32:00,
2013-05-29 13:42:00,83.0,80.0,-100.00,South,190,7.0,16.0,90,0.00,,,-99.99,,2013-05-29 18:42:00,
2013-05-29 13:51:00,82.0,78.0,-100.00,SW,215,12.0,21.0,86,0.00,,,-99.99,,2013-05-29 18:51:00,
2013-05-29 14:02:00,82.0,78.0,-100.00,SW,215,12.0,21.0,86,0.00,,,-99.99,,2013-05-29 19:02:00,
2013-05-29 14:11:00,82.0,78.0,-100.00,SSW,210,12.0,19.0,86,0.00,,,-99.99,,2013-05-29 19:11:00,
2013-05-29 14:21:00,83.0,78.0,-100.00,SSW,200,12.0,19.0,86,0.00,,,-99.99,,2013-05-29 19:21:00,
2013-05-29 14:32:00,83.0,78.0,-100.00,SSW,200,12.0,21.0,84,0.00,,,-99.99,,2013-05-29 19:32:00,
2013-05-29 14:44:00,83.0,78.0,-100.00,SSW,200,12.0,21.0,84,0.00,,,-99.99,,2013-05-29 19:44:00,
2013-05-29 14:52:00,83.0,77.0,-100.00,SSW,205,15.0,23.0,82,0.00,,,-99.99,,2013-05-29 19:52:00,
2013-05-29 15:02:00,83.0,77.0,-100.00,SSW,205,15.0,23.0,82,0.00,,,-99.99,,2013-05-29 20:02:00,
2013-05-29 15:11:00,84.0,78.0,-100.00,SSW,195,13.0,24.0,84,0.00,,,-99.99,,2013-05-29 20:11:00,
2013-05-29 15:22:00,83.0,77.0,-100.00,SW,215,14.0,26.0,83,0.00,,,-99.99,,2013-05-29 20:22:00,
2013-05-29 15:33:00,82.0,76.0,-100.00,SSW,195,16.0,28.0,82,0.00,,,-99.99,,2013-05-29 20:33:00,
2013-05-29 15:42:00,82.0,76.0,-100.00,SSW,195,16.0,28.0,82,0.00,,,-99.99,,2013-05-29 20:42:00,
2013-05-29 15:52:00,82.0,77.0,-100.00,SW,215,14.0,28.0,86,0.00,,,-99.99,,2013-05-29 20:52:00,
2013-05-29 16:02:00,82.0,77.0,-100.00,SW,215,14.0,28.0,86,0.00,,,-99.99,,2013-05-29 21:02:00,
2013-05-29 16:12:00,81.0,76.0,-100.00,SSW,195,14.0,23.0,85,0.00,,,-99.99,,2013-05-29 21:12:00,
2013-05-29 16:22:00,79.0,77.0,-100.00,SSW,195,12.0,21.0,95,0.43,,,-99.99,,2013-05-29 21:22:00,
2013-05-29 16:33:00,77.0,75.0,-100.00,SSW,205,8.0,17.0,95,0.55,,,-99.99,,2013-05-29 21:33:00,
2013-05-29 16:43:00,77.0,75.0,-100.00,SSW,205,8.0,17.0,95,0.55,,,-99.99,,2013-05-29 21:43:00,
2013-05-29 16:53:00,76.0,74.0,-100.00,South,185,12.0,18.0,95,0.18,,,-99.99,,2013-05-29 21:53:00,
2013-05-29 17:03:00,76.0,74.0,-100.00,South,185,12.0,18.0,95,0.18,,,-99.99,,2013-05-29 22:03:00,
2013-05-29 17:12:00,75.0,74.0,-100.00,SSW,200,10.0,17.0,95,0.00,,,-99.99,,2013-05-29 22:12:00,
2013-05-29 17:23:00,75.0,74.0,-100.00,South,185,8.0,13.0,95,0.00,,,-99.99,,2013-05-29 22:23:00,
2013-05-29 17:33:00,77.0,76.0,-100.00,South,180,8.0,14.0,95,0.00,,,-99.99,,2013-05-29 22:33:00,
2013-05-29 17:42:00,77.0,76.0,-100.00,South,180,8.0,14.0,95,0.00,,,-99.99,,2013-05-29 22:42:00,
2013-05-29 17:53:00,80.0,78.0,-100.00,South,180,10.0,17.0,95,0.00,,,-99.99,,2013-05-29 22:53:00,
2013-05-29 18:02:00,80.0,78.0,-100.00,South,180,10.0,17.0,95,0.00,,,-99.99,,2013-05-29 23:02:00,
2013-05-29 18:12:00,79.0,78.0,-100.00,South,180,11.0,16.0,95,0.00,,,-99.99,,2013-05-29 23:12:00,
2013-05-29 18:21:00,80.0,78.0,-100.00,South,185,10.0,14.0,95,0.00,,,-99.99,,2013-05-29 23:21:00,
2013-05-29 18:33:00,79.0,78.0,-100.00,South,185,11.0,18.0,95,0.00,,,-99.99,,2013-05-29 23:33:00,
2013-05-29 18:42:00,80.0,78.0,-100.00,South,185,11.0,17.0,95,0.00,,,-99.99,,2013-05-29 23:42:00,
2013-05-29 18:52:00,81.0,79.0,-100.00,South,180,11.0,21.0,95,0.00,,,-99.99,,2013-05-29 23:52:00,
2013-05-29 19:01:00,81.0,78.0,-100.00,SSW,200,12.0,19.0,91,0.00,,,-99.99,,2013-05-30 00:01:00,
2013-05-29 19:11:00,81.0,78.0,-100.00,South,180,12.0,23.0,89,0.00,,,-99.99,,2013-05-30 00:11:00,
2013-05-29 19:21:00,80.0,77.0,-100.00,South,190,10.0,26.0,90,0.18,,,-99.99,,2013-05-30 00:21:00,
2013-05-29 19:31:00,80.0,76.0,-100.00,South,190,10.0,21.0,88,0.00,,,-99.99,,2013-05-30 00:31:00,
2013-05-29 19:42:00,80.0,76.0,-100.00,South,190,10.0,21.0,88,0.00,,,-99.99,,2013-05-30 00:42:00,
2013-05-29 19:52:00,79.0,76.0,-100.00,SSW,200,9.0,19.0,89,0.00,,,-99.99,,2013-05-30 00:52:00,
2013-05-29 20:01:00,79.0,76.0,-100.00,SSW,195,9.0,17.0,90,0.00,,,-99.99,,2013-05-30 01:01:00,
2013-05-29 20:11:00,78.0,76.0,-100.00,South,190,9.0,14.0,90,0.00,,,-99.99,,2013-05-30 01:11:00,
2013-05-29 20:21:00,78.0,75.0,-100.00,SSW,195,9.0,18.0,89,0.00,,,-99.99,,2013-05-30 01:21:00,
2013-05-29 20:32:00,78.0,75.0,-100.00,South,190,9.0,14.0,91,0.00,,,-99.99,,2013-05-30 01:32:00,
2013-05-29 20:41:00,78.0,75.0,-100.00,South,185,9.0,14.0,91,0.00,,,-99.99,,2013-05-30 01:41:00,
2013-05-29 20:52:00,77.0,75.0,-100.00,South,180,7.0,11.0,92,0.00,,,-99.99,,2013-05-30 01:52:00,
2013-05-29 21:01:00,77.0,75.0,-100.00,SSW,195,7.0,11.0,92,0.00,,,-99.99,,2013-05-30 02:01:00,
2013-05-29 21:11:00,77.0,75.0,-100.00,South,190,7.0,12.0,92,0.00,,,-99.99,,2013-05-30 02:11:00,
2013-05-29 21:21:00,77.0,74.0,-100.00,South,185,7.0,12.0,92,0.00,,,-99.99,,2013-05-30 02:21:00,
2013-05-29 21:32:00,77.0,74.0,-100.00,South,190,9.0,13.0,91,0.00,,,-99.99,,2013-05-30 02:32:00,
2013-05-29 21:42:00,77.0,74.0,-100.00,South,190,9.0,13.0,91,0.00,,,-99.99,,2013-05-30 02:42:00,
2013-05-29 21:52:00,77.0,74.0,-100.00,South,190,9.0,13.0,91,0.00,,,-99.99,,2013-05-30 02:52:00,
2013-05-29 22:02:00,77.0,73.0,-100.00,South,190,9.0,14.0,88,0.00,,,-99.99,,2013-05-30 03:02:00,
2013-05-29 22:11:00,77.0,73.0,-100.00,South,185,9.0,13.0,87,0.00,,,-99.99,,2013-05-30 03:11:00,
2013-05-29 22:21:00,76.0,73.0,-100.00,South,190,7.0,12.0,88,0.00,,,-99.99,,2013-05-30 03:21:00,
2013-05-29 22:33:00,76.0,73.0,-100.00,SSW,195,8.0,14.0,87,0.00,,,-99.99,,2013-05-30 03:33:00,
2013-05-29 22:43:00,77.0,72.0,-100.00,South,190,9.0,17.0,85,0.00,,,-99.99,,2013-05-30 03:43:00,
2013-05-29 22:53:00,77.0,72.0,-100.00,SSW,195,10.0,16.0,84,0.00,,,-99.99,,2013-05-30 03:53:00,
2013-05-29 23:02:00,76.0,71.0,-100.00,SSW,200,11.0,20.0,83,0.00,,,-99.99,,2013-05-30 04:02:00,
2013-05-29 23:12:00,77.0,71.0,-100.00,SSW,195,12.0,19.0,83,0.00,,,-99.99,,2013-05-30 04:12:00,
2013-05-29 23:23:00,76.0,71.0,-100.00,South,185,9.0,17.0,84,0.00,,,-99.99,,2013-05-30 04:23:00,
2013-05-29 23:33:00,76.0,71.0,-100.00,SSW,200,11.0,17.0,83,0.00,,,-99.99,,2013-05-30 04:33:00,
2013-05-29 23:42:00,76.0,71.0,-100.00,SSW,195,9.0,20.0,84,0.00,,,-99.99,,2013-05-30 04:42:00,
2013-05-29 23:53:00,76.0,71.0,-100.00,South,180,11.0,17.0,84,0.00,,,-99.99,,2013-05-30 04:53:00,